Clifton, Kansas
Current Conditions -  °F | °C
As of 10:55 AM on Saturday 25 Oct 2014 (Local Time) from KCNK Reporting Station
Clear Clear  
Wind Chill: 65°   Ceiling: Unl
Heat Index: 65°   Visibility: 8mi
Dew Point: 59°   Wind: 6mph
Humidity: 81%   Direction: 80°E
Pressure: 30.09"   Gusts: NA
Location:  39.57°N, 97.28°W
Report Text: KCNK 251555Z AUTO 08005KT 8SM CLR 18/15 A3009 RMK AO2 SLP180 T01830150
Loading
Personal Weather Stations






























Interactive Weather Map
Tropical Storm Tracking
New forecast layout! Learn more

10-Day Weather Forecast

Advertisements
Track Severe Weather on mobile